Copper King, Montana
Current Conditions -  °F | °C
As of 1:20 AM on Monday 24 Nov 2014 (Local Time) from KMLP Reporting Station
Haze Haze  
Wind Chill: 16°   Ceiling: 100
Heat Index: 25°   Visibility: 3mi
Dew Point: 22°   Wind: 8mph
Humidity: 88%   Direction: 310°NW
Pressure: 30.03"   Gusts: 18mph
Location:  47.6853°N, 115.247°W
Report Text: KMLP 240820Z AUTO 31007G16KT 290V350 3SM BR OVC001 M04/M06 A3003 RMK AO2 T10391056
Loading
Personal Weather Stations






























Interactive Weather Map New forecast layout! Learn more

10-Day Weather Forecast

Advertisements
Track Severe Weather on mobile